Time;durP1;ratioP1;P1;durP2;ratioP2;P2;SDS_P1;SDS_P2;PMS_P1;PMS_P2;Temp;Humidity;BMP_temperature;BMP_pressure;BME280_temperature;BME280_humidity;BME280_pressure;Samples;Min_cycle;Max_cycle;Signal;HPM_P1;HPM_P2
2021/09/20 00:00:38;;;;;;;21.13;10.50;;;24.40;99.90;;;;;;5039053;28;20503;-65
2021/09/20 00:03:06;;;;;;;16.58;9.98;;;24.50;99.90;;;;;;5042018;28;20037;-66
2021/09/20 00:05:34;;;;;;;18.02;11.48;;;24.50;99.90;;;;;;5043628;28;20559;-66
2021/09/20 00:08:03;;;;;;;18.77;11.02;;;24.50;99.90;;;;;;5044001;28;20368;-66
2021/09/20 00:10:31;;;;;;;16.50;10.32;;;24.40;99.90;;;;;;5043592;28;20048;-66
2021/09/20 00:12:58;;;;;;;19.52;8.98;;;24.50;99.90;;;;;;5045273;28;20049;-66
2021/09/20 00:15:26;;;;;;;15.93;10.43;;;24.40;99.90;;;;;;5034758;28;20360;-66
2021/09/20 00:17:54;;;;;;;15.85;9.02;;;24.40;99.90;;;;;;5018633;28;20063;-67
2021/09/20 00:20:22;;;;;;;16.35;8.82;;;24.50;99.90;;;;;;5034804;28;20044;-66
2021/09/20 00:22:50;;;;;;;25.02;9.90;;;24.60;99.90;;;;;;5035347;28;20038;-65
2021/09/20 00:25:18;;;;;;;14.13;8.68;;;24.50;99.90;;;;;;5037963;28;20033;-65
2021/09/20 00:27:46;;;;;;;21.77;9.50;;;24.60;99.90;;;;;;5039763;28;20106;-65
2021/09/20 00:30:14;;;;;;;12.52;8.93;;;24.60;99.90;;;;;;5034572;28;20195;-65
2021/09/20 00:32:41;;;;;;;18.55;9.07;;;24.60;99.90;;;;;;5018262;28;20534;-65
2021/09/20 00:35:09;;;;;;;17.40;8.48;;;24.60;99.90;;;;;;5046938;28;20053;-65
2021/09/20 00:37:37;;;;;;;20.60;10.52;;;24.50;99.90;;;;;;5042811;28;20143;-66
2021/09/20 00:40:06;;;;;;;18.90;8.43;;;24.60;99.90;;;;;;5026327;28;20045;-66
2021/09/20 00:42:34;;;;;;;16.90;9.10;;;24.60;99.90;;;;;;5036843;28;20107;-65
2021/09/20 00:45:02;;;;;;;16.40;8.57;;;24.60;99.90;;;;;;5035794;28;20053;-65
2021/09/20 00:47:29;;;;;;;17.38;8.75;;;24.60;99.90;;;;;;5001585;28;20039;-65
2021/09/20 00:49:57;;;;;;;18.45;8.95;;;24.50;99.90;;;;;;5041728;28;20527;-65
2021/09/20 00:52:25;;;;;;;18.55;8.40;;;24.50;99.90;;;;;;5050859;28;20091;-66
2021/09/20 00:54:52;;;;;;;16.75;8.15;;;24.50;99.90;;;;;;5053527;28;20041;-66
2021/09/20 00:57:20;;;;;;;19.52;8.35;;;24.50;99.90;;;;;;5052011;28;20045;-67
2021/09/20 00:59:48;;;;;;;16.17;7.60;;;24.50;99.90;;;;;;5035341;28;20364;-66
2021/09/20 01:02:16;;;;;;;15.10;9.63;;;24.60;99.90;;;;;;5051603;28;20503;-67
2021/09/20 01:04:44;;;;;;;15.07;8.40;;;24.50;99.90;;;;;;5051794;28;20047;-66
2021/09/20 01:07:12;;;;;;;14.55;8.73;;;24.60;99.90;;;;;;5051910;28;20037;-66
2021/09/20 01:09:44;;;;;;;16.08;8.35;;;24.60;99.90;;;;;;5051849;28;20367;-67
2021/09/20 01:12:13;;;;;;;18.92;8.40;;;24.60;99.90;;;;;;5053158;28;20087;-65
2021/09/20 01:14:40;;;;;;;23.85;11.23;;;24.60;99.90;;;;;;5053960;28;20041;-65
2021/09/20 01:17:09;;;;;;;27.23;8.93;;;24.50;99.90;;;;;;5053829;28;20070;-65
2021/09/20 01:19:37;;;;;;;16.23;9.45;;;24.50;99.90;;;;;;5053747;28;20029;-66
2021/09/20 01:22:19;;;;;;;17.67;9.25;;;24.50;99.90;;;;;;5036921;28;20044;-65
2021/09/20 01:24:48;;;;;;;14.90;8.93;;;24.50;99.90;;;;;;5053849;28;20041;-65
2021/09/20 01:27:17;;;;;;;26.08;9.68;;;24.50;99.90;;;;;;5053645;28;20127;-65
2021/09/20 01:29:46;;;;;;;21.25;9.15;;;24.50;99.90;;;;;;5053784;28;20037;-65
2021/09/20 01:32:14;;;;;;;14.32;9.25;;;24.50;99.90;;;;;;5053571;28;20073;-65
2021/09/20 01:34:43;;;;;;;18.58;8.95;;;24.40;99.90;;;;;;5053922;28;20047;-65
2021/09/20 01:37:10;;;;;;;17.75;8.77;;;24.40;99.90;;;;;;5037135;28;20032;-65
2021/09/20 01:39:39;;;;;;;17.27;9.43;;;24.40;99.90;;;;;;5053501;28;20490;-65
2021/09/20 01:42:08;;;;;;;15.55;9.27;;;24.50;99.90;;;;;;5053350;28;20033;-66
2021/09/20 01:44:37;;;;;;;13.68;7.68;;;24.50;99.90;;;;;;5053363;28;20048;-65
2021/09/20 01:47:05;;;;;;;20.23;9.20;;;24.50;99.90;;;;;;5053193;28;20131;-66
2021/09/20 01:49:33;;;;;;;19.10;9.50;;;24.50;99.90;;;;;;5053395;28;20055;-65
2021/09/20 01:52:00;;;;;;;16.40;8.10;;;24.50;99.90;;;;;;5036722;28;20044;-66
2021/09/20 01:54:29;;;;;;;14.73;9.35;;;24.50;99.90;;;;;;5053189;28;20033;-65
2021/09/20 01:56:57;;;;;;;15.70;8.23;;;24.50;99.90;;;;;;5053101;28;20040;-66
2021/09/20 01:59:24;;;;;;;12.98;8.43;;;24.40;99.90;;;;;;5036333;28;20041;-65
2021/09/20 02:01:52;;;;;;;20.25;8.63;;;24.50;99.90;;;;;;5053066;28;20087;-66
2021/09/20 02:04:20;;;;;;;17.23;8.75;;;24.50;99.90;;;;;;5036556;28;20482;-65
2021/09/20 02:06:47;;;;;;;16.70;8.60;;;24.40;99.90;;;;;;5054244;28;20037;-65
2021/09/20 02:09:15;;;;;;;14.15;8.65;;;24.30;99.90;;;;;;5052856;28;20049;-65
2021/09/20 02:11:42;;;;;;;17.55;9.90;;;24.20;99.90;;;;;;5036091;28;20048;-66
2021/09/20 02:14:10;;;;;;;14.98;8.07;;;24.20;99.90;;;;;;5036073;28;20040;-65
2021/09/20 02:16:38;;;;;;;14.82;9.07;;;24.10;99.90;;;;;;5053975;28;20474;-65
2021/09/20 02:19:06;;;;;;;20.35;8.80;;;24.10;99.90;;;;;;5036167;28;20071;-65
2021/09/20 02:21:34;;;;;;;21.83;8.68;;;24.10;99.90;;;;;;5036012;28;20441;-66
2021/09/20 02:24:01;;;;;;;11.73;8.43;;;24.10;99.90;;;;;;5053643;28;20433;-66
2021/09/20 02:26:29;;;;;;;13.82;7.80;;;24.10;99.90;;;;;;5035930;28;20095;-66
2021/09/20 02:28:56;;;;;;;16.73;8.48;;;24.10;99.90;;;;;;5052650;28;20036;-66
2021/09/20 02:31:24;;;;;;;13.32;8.00;;;24.00;99.90;;;;;;5036129;28;20461;-65
2021/09/20 02:33:51;;;;;;;21.92;8.68;;;24.00;99.90;;;;;;5036079;28;20387;-65
2021/09/20 02:36:19;;;;;;;15.50;8.02;;;24.00;99.90;;;;;;5035990;28;20056;-65
2021/09/20 02:38:47;;;;;;;16.63;8.18;;;24.00;99.90;;;;;;5053571;28;20036;-67
2021/09/20 02:41:15;;;;;;;13.80;8.02;;;24.00;99.90;;;;;;5052595;28;20391;-65
2021/09/20 02:43:43;;;;;;;19.80;7.30;;;24.00;99.90;;;;;;5052569;28;20037;-65
2021/09/20 02:46:11;;;;;;;16.40;7.68;;;24.10;99.90;;;;;;5035524;28;20372;-65
2021/09/20 02:48:39;;;;;;;16.50;9.05;;;24.00;99.90;;;;;;5052199;28;20441;-65
2021/09/20 02:51:07;;;;;;;22.15;9.70;;;24.10;99.90;;;;;;5052219;28;20041;-65
2021/09/20 02:53:35;;;;;;;12.63;8.00;;;24.10;99.90;;;;;;5019076;28;20044;-66
2021/09/20 02:56:05;;;;;;;16.10;7.38;;;24.10;99.90;;;;;;5035824;28;20037;-65
2021/09/20 02:58:33;;;;;;;18.10;8.30;;;24.10;99.90;;;;;;5052437;28;20128;-65
2021/09/20 03:01:00;;;;;;;17.83;8.43;;;24.10;99.90;;;;;;5052137;28;20025;-65
2021/09/20 03:03:28;;;;;;;18.48;8.77;;;24.10;99.90;;;;;;5052130;28;20083;-65
2021/09/20 03:05:56;;;;;;;14.35;8.90;;;24.00;99.90;;;;;;5051929;28;20044;-66
2021/09/20 03:08:23;;;;;;;15.60;8.55;;;23.80;99.90;;;;;;5051945;28;20374;-65
2021/09/20 03:10:51;;;;;;;18.90;9.95;;;23.70;99.90;;;;;;5053532;28;20037;-65
2021/09/20 03:13:19;;;;;;;15.55;8.98;;;23.70;99.90;;;;;;5052265;28;20044;-65
2021/09/20 03:15:46;;;;;;;14.38;8.13;;;23.70;99.90;;;;;;5053344;28;20029;-65
2021/09/20 03:18:14;;;;;;;19.25;7.82;;;23.70;99.90;;;;;;5035362;28;20045;-65
2021/09/20 03:20:41;;;;;;;18.83;8.27;;;23.70;99.90;;;;;;5053106;28;20556;-65
2021/09/20 03:23:09;;;;;;;23.13;9.38;;;23.60;99.90;;;;;;5019170;28;20452;-65
2021/09/20 03:25:37;;;;;;;20.02;9.20;;;23.60;99.90;;;;;;5035584;28;20421;-65
2021/09/20 03:28:05;;;;;;;18.25;8.10;;;23.60;99.90;;;;;;5053182;28;20047;-65
2021/09/20 03:30:32;;;;;;;18.73;9.32;;;23.60;99.90;;;;;;5052025;28;20509;-65
2021/09/20 03:33:00;;;;;;;17.65;8.82;;;23.50;99.90;;;;;;5052022;28;20381;-65
2021/09/20 03:35:28;;;;;;;14.82;7.68;;;23.60;99.90;;;;;;5051680;28;20545;-65
2021/09/20 03:37:55;;;;;;;15.50;7.53;;;23.70;99.90;;;;;;5035576;28;20091;-66
2021/09/20 03:40:23;;;;;;;15.95;7.78;;;23.70;99.90;;;;;;5053302;28;20123;-65
2021/09/20 03:42:50;;;;;;;17.08;9.60;;;23.80;99.90;;;;;;5051882;28;20037;-65
2021/09/20 03:45:18;;;;;;;16.90;8.73;;;23.90;99.90;;;;;;5051660;28;20052;-65
2021/09/20 03:47:46;;;;;;;17.40;8.32;;;23.90;99.90;;;;;;5034653;28;20120;-65
2021/09/20 03:50:13;;;;;;;21.58;8.68;;;23.90;99.90;;;;;;5035522;28;20041;-65
2021/09/20 03:52:42;;;;;;;18.33;8.30;;;24.00;99.90;;;;;;5035152;28;20037;-65
2021/09/20 03:55:11;;;;;;;17.50;7.82;;;24.00;99.90;;;;;;5051812;28;20371;-65
2021/09/20 03:57:38;;;;;;;15.30;7.10;;;24.00;99.90;;;;;;5018911;28;20558;-65
2021/09/20 04:00:07;;;;;;;19.30;8.23;;;24.10;99.90;;;;;;5038543;28;20037;-66
2021/09/20 04:02:34;;;;;;;21.25;7.43;;;24.10;99.90;;;;;;5055341;28;20041;-66
2021/09/20 04:05:03;;;;;;;17.38;7.93;;;24.10;99.90;;;;;;5055351;28;20044;-66
2021/09/20 04:07:30;;;;;;;18.52;7.68;;;24.10;99.90;;;;;;5055391;28;20043;-65
2021/09/20 04:09:58;;;;;;;20.45;7.68;;;24.10;99.90;;;;;;5056308;28;20131;-66
2021/09/20 04:12:26;;;;;;;17.38;8.18;;;24.10;99.90;;;;;;5056194;28;20036;-65
2021/09/20 04:14:53;;;;;;;18.75;7.18;;;24.10;99.90;;;;;;5054938;28;20036;-65
2021/09/20 04:17:21;;;;;;;16.10;7.20;;;24.20;99.90;;;;;;5056399;28;20061;-65
2021/09/20 04:19:48;;;;;;;21.85;7.05;;;24.20;99.90;;;;;;5054993;28;20045;-65
2021/09/20 04:22:16;;;;;;;17.73;7.47;;;24.20;99.90;;;;;;5054747;28;20041;-65
2021/09/20 04:24:44;;;;;;;18.80;7.03;;;24.20;99.90;;;;;;5054796;28;20041;-65
2021/09/20 04:27:11;;;;;;;18.38;6.72;;;24.20;99.90;;;;;;5054678;28;20044;-66
2021/09/20 04:29:39;;;;;;;13.57;6.85;;;24.20;99.90;;;;;;5054521;28;20198;-65
2021/09/20 04:32:07;;;;;;;14.30;6.80;;;24.20;99.90;;;;;;5054823;28;20340;-65
2021/09/20 04:34:34;;;;;;;17.45;7.03;;;24.10;99.90;;;;;;5055885;28;20045;-66
2021/09/20 04:37:02;;;;;;;15.25;7.57;;;24.00;99.90;;;;;;5054329;28;20036;-66
2021/09/20 04:39:30;;;;;;;12.82;6.28;;;23.90;99.90;;;;;;5037889;28;20033;-66
2021/09/20 04:41:58;;;;;;;11.95;7.13;;;23.90;99.90;;;;;;5055324;28;20127;-66
2021/09/20 04:44:25;;;;;;;16.80;8.05;;;23.80;99.90;;;;;;5054554;28;20098;-66
2021/09/20 04:46:53;;;;;;;15.63;7.68;;;23.80;99.90;;;;;;5055663;28;20095;-66
2021/09/20 04:49:20;;;;;;;16.77;8.30;;;23.70;99.90;;;;;;5054249;28;20045;-66
2021/09/20 04:51:48;;;;;;;17.15;8.57;;;23.50;99.90;;;;;;5055416;28;20540;-66
2021/09/20 04:54:15;;;;;;;18.27;8.32;;;23.50;99.90;;;;;;5055218;28;20045;-66
2021/09/20 04:56:43;;;;;;;15.30;8.02;;;23.60;99.90;;;;;;5054156;28;20072;-65
2021/09/20 04:59:10;;;;;;;18.58;8.15;;;23.80;99.90;;;;;;5054165;28;20037;-65
2021/09/20 05:01:38;;;;;;;22.58;9.70;;;23.90;99.90;;;;;;5055647;28;20351;-65
2021/09/20 05:04:09;;;;;;;26.83;7.90;;;23.90;99.90;;;;;;5020916;28;20055;-66
2021/09/20 05:06:37;;;;;;;25.80;9.95;;;24.00;99.90;;;;;;5037508;28;20041;-65
2021/09/20 05:09:07;;;;;;;19.83;9.10;;;24.10;99.90;;;;;;5053613;28;20041;-66
2021/09/20 05:11:35;;;;;;;16.05;9.73;;;24.20;99.90;;;;;;5037286;28;20043;-66
2021/09/20 05:14:03;;;;;;;22.00;9.32;;;24.30;99.90;;;;;;5053910;28;20127;-66
2021/09/20 05:16:32;;;;;;;22.60;7.75;;;24.40;99.90;;;;;;5053795;28;20064;-66
2021/09/20 05:18:59;;;;;;;14.88;7.72;;;24.40;99.90;;;;;;5053674;28;20529;-66
2021/09/20 05:21:27;;;;;;;18.27;7.50;;;24.40;99.90;;;;;;5053578;28;20045;-66
2021/09/20 05:23:55;;;;;;;20.80;9.30;;;24.50;99.90;;;;;;5053461;28;20041;-66
2021/09/20 05:26:23;;;;;;;15.10;7.57;;;24.60;99.90;;;;;;5053457;28;20044;-66
2021/09/20 05:28:50;;;;;;;18.25;7.68;;;24.80;99.90;;;;;;5053546;28;20033;-66
2021/09/20 05:31:18;;;;;;;18.85;8.45;;;25.00;99.90;;;;;;5054626;28;20043;-66
2021/09/20 05:33:46;;;;;;;16.75;7.65;;;25.20;99.90;;;;;;5053312;28;20048;-65
2021/09/20 05:36:13;;;;;;;15.55;7.85;;;25.40;99.90;;;;;;5053156;28;20483;-65
2021/09/20 05:38:41;;;;;;;19.70;8.27;;;25.70;99.90;;;;;;5053510;28;20037;-65
2021/09/20 05:41:09;;;;;;;13.23;6.43;;;25.80;99.90;;;;;;5053396;28;20037;-65
2021/09/20 05:43:36;;;;;;;16.77;7.45;;;25.90;99.90;;;;;;5054490;28;20047;-65
2021/09/20 05:46:04;;;;;;;15.00;7.75;;;26.00;99.90;;;;;;5053101;28;20041;-65
2021/09/20 05:48:32;;;;;;;15.40;8.38;;;25.90;99.90;;;;;;5020018;28;20045;-65
2021/09/20 05:51:00;;;;;;;18.67;7.40;;;26.10;99.90;;;;;;5054417;28;20033;-66
2021/09/20 05:53:28;;;;;;;19.15;7.43;;;26.10;99.90;;;;;;5054257;28;20037;-65
2021/09/20 05:55:55;;;;;;;15.13;8.45;;;26.10;99.90;;;;;;5054131;28;20091;-66
2021/09/20 05:58:23;;;;;;;22.80;9.38;;;26.30;99.90;;;;;;5036406;28;20041;-66
2021/09/20 06:00:51;;;;;;;26.55;8.18;;;26.30;99.90;;;;;;5052813;28;20060;-65
2021/09/20 06:03:18;;;;;;;18.38;7.22;;;26.50;99.90;;;;;;5053883;28;20344;-65
2021/09/20 06:05:47;;;;;;;10.88;7.57;;;26.70;99.90;;;;;;5054259;28;20047;-66
2021/09/20 06:08:16;;;;;;;19.10;7.35;;;27.00;99.90;;;;;;5052865;28;20049;-66
2021/09/20 06:10:43;;;;;;;20.05;8.18;;;27.30;99.90;;;;;;5052694;28;20072;-65
2021/09/20 06:13:11;;;;;;;18.77;9.07;;;27.50;99.90;;;;;;5052676;28;20052;-64
2021/09/20 06:15:39;;;;;;;15.60;7.63;;;27.60;99.90;;;;;;5052634;28;20052;-63
2021/09/20 06:18:07;;;;;;;14.60;6.70;;;27.60;99.90;;;;;;5052879;28;20340;-63
2021/09/20 06:20:35;;;;;;;13.80;6.70;;;27.40;99.90;;;;;;5053705;28;20040;-63
2021/09/20 06:23:04;;;;;;;14.23;7.60;;;27.60;99.90;;;;;;5053791;28;20033;-64
2021/09/20 06:25:32;;;;;;;18.45;6.93;;;27.70;99.90;;;;;;5036179;28;20060;-63
2021/09/20 06:28:01;;;;;;;17.95;6.85;;;27.90;99.90;;;;;;5053721;28;20037;-64
2021/09/20 06:30:29;;;;;;;16.35;6.53;;;28.10;99.90;;;;;;5052502;28;20150;-63
2021/09/20 06:32:56;;;;;;;15.80;5.75;;;28.30;99.90;;;;;;5035973;28;20041;-63
2021/09/20 06:35:24;;;;;;;14.93;5.75;;;28.50;99.90;;;;;;5053684;28;20124;-63
2021/09/20 06:37:52;;;;;;;14.13;6.47;;;28.70;99.90;;;;;;5052578;28;20036;-63
2021/09/20 06:40:19;;;;;;;13.57;6.25;;;28.80;99.90;;;;;;5052502;28;20042;-63
2021/09/20 06:42:47;;;;;;;11.57;5.38;;;28.80;99.90;;;;;;5052283;28;20037;-64
2021/09/20 06:45:15;;;;;;;16.08;6.20;;;28.90;99.60;;;;;;5052540;28;20048;-63
2021/09/20 06:47:43;;;;;;;14.32;5.43;;;29.10;99.30;;;;;;5052466;28;20044;-63
2021/09/20 06:50:12;;;;;;;15.18;5.70;;;29.20;99.40;;;;;;5052408;28;20037;-64
2021/09/20 06:52:39;;;;;;;19.50;6.28;;;29.40;98.90;;;;;;5036152;28;20044;-63
2021/09/20 06:55:09;;;;;;;16.33;6.43;;;29.50;98.40;;;;;;5052274;28;20141;-63
2021/09/20 06:57:37;;;;;;;15.27;5.30;;;29.70;98.20;;;;;;5052736;28;20040;-64
2021/09/20 07:00:06;;;;;;;15.45;5.45;;;30.00;97.80;;;;;;5053838;28;20048;-64
2021/09/20 07:02:34;;;;;;;15.40;6.05;;;30.00;97.40;;;;;;5053437;28;20033;-63
2021/09/20 07:05:02;;;;;;;14.18;5.55;;;30.10;96.90;;;;;;5052292;28;20033;-63
2021/09/20 07:07:29;;;;;;;16.90;5.65;;;30.40;97.10;;;;;;5053407;28;20040;-63
2021/09/20 07:09:57;;;;;;;15.35;5.15;;;30.50;96.60;;;;;;5035425;28;20045;-64
2021/09/20 07:12:24;;;;;;;17.30;5.25;;;30.70;96.00;;;;;;5053492;28;20091;-64
2021/09/20 07:14:52;;;;;;;15.48;6.07;;;30.80;95.50;;;;;;5052317;28;20045;-63
2021/09/20 07:17:20;;;;;;;14.25;5.63;;;30.90;95.30;;;;;;5053470;28;20115;-63
2021/09/20 07:19:53;;;;;;;18.45;5.35;;;31.10;95.20;;;;;;5053485;28;20041;-63
2021/09/20 07:22:21;;;;;;;12.85;5.15;;;31.10;94.90;;;;;;5052076;28;20048;-63
2021/09/20 07:24:48;;;;;;;18.83;5.85;;;31.20;94.40;;;;;;5053167;28;20033;-64
2021/09/20 07:27:16;;;;;;;13.95;6.22;;;31.30;94.70;;;;;;5052188;28;20262;-63
2021/09/20 07:29:44;;;;;;;20.15;5.95;;;31.30;94.70;;;;;;5053347;28;20036;-62
2021/09/20 07:32:12;;;;;;;11.55;6.50;;;31.10;94.30;;;;;;5019069;28;20077;-62
2021/09/20 07:34:40;;;;;;;9.55;4.53;;;30.90;94.50;;;;;;5055032;28;20048;-62
2021/09/20 07:37:08;;;;;;;17.42;6.68;;;31.00;94.80;;;;;;5057048;28;20061;-61
2021/09/20 07:39:36;;;;;;;17.00;5.38;;;31.10;94.90;;;;;;5055718;28;20467;-64
2021/09/20 07:42:04;;;;;;;19.70;5.35;;;31.20;95.10;;;;;;5055807;28;20041;-64
2021/09/20 07:44:31;;;;;;;20.52;6.57;;;31.30;94.80;;;;;;5055653;28;20072;-71
2021/09/20 07:47:00;;;;;;;13.63;6.57;;;31.30;94.60;;;;;;5055628;28;20105;-65
2021/09/20 07:49:27;;;;;;;12.43;6.47;;;31.40;94.80;;;;;;5038981;28;20037;-65
2021/09/20 07:51:55;;;;;;;14.88;5.55;;;31.40;94.40;;;;;;5053993;28;20471;-64
2021/09/20 07:54:23;;;;;;;21.42;5.85;;;31.40;93.80;;;;;;5055670;28;20043;-64
